44II weather

The Wolf Den Airport
Roanoke, Indiana, United States

Public forecast

Using degrees Fahrenheit for public forecast. Weather courtesy of forecast.io.

METAR (pilot weather report)

Closest report is Huntington Municipal Airport, 6.8 nm (12.6 km) SSW. Retrieved 2019/04/22 19:35 UTC (2 minutes ago):

KHHG 221935Z AUTO 18010KT 10SM CLR 23/07 A3009 RMK AO2 T02270067

TAF (pilot weather forecast)

Closest forecast is Fort Wayne International Airport, 8.8 nm (16.3 km) E. Retrieved 2019/04/22 18:36 UTC (1 hour ago):

TAF KFWA 221734Z 2218/2318 18011G21KT P6SM SCT150 FM230000 17010KT P6SM SCT250 FM231100 22012KT P6SM BKN030 FM231500 27013G24KT P6SM VCSH BKN022